createdAt,value
2022-10-10T00:00:05.157Z,1005.48
2022-10-10T00:01:04.509Z,1005.58
2022-10-10T00:02:04.525Z,1005.53
2022-10-10T00:03:04.478Z,1005.45
2022-10-10T00:04:04.608Z,1005.51
2022-10-10T00:05:04.606Z,1005.51
2022-10-10T00:06:04.485Z,1005.53
2022-10-10T00:07:04.478Z,1005.43
2022-10-10T00:08:04.456Z,1005.46
2022-10-10T00:09:04.466Z,1005.48
2022-10-10T00:10:04.445Z,1005.44
2022-10-10T00:11:04.485Z,1005.41
2022-10-10T00:12:04.503Z,1005.45
2022-10-10T00:13:04.415Z,1005.38
2022-10-10T00:14:04.426Z,1005.38
2022-10-10T00:15:04.424Z,1005.35
2022-10-10T00:16:04.408Z,1005.31
2022-10-10T00:17:04.404Z,1005.30
2022-10-10T00:18:04.413Z,1005.31
2022-10-10T00:19:04.394Z,1005.34
2022-10-10T00:20:04.375Z,1005.34
2022-10-10T00:21:04.373Z,1005.37
2022-10-10T00:22:04.362Z,1005.35
2022-10-10T00:23:04.410Z,1005.34
2022-10-10T00:24:04.370Z,1005.39
2022-10-10T00:25:04.352Z,1005.35
2022-10-10T00:26:08.575Z,1005.35
2022-10-10T00:27:04.333Z,1005.31
2022-10-10T00:28:04.381Z,1005.29
2022-10-10T00:29:04.331Z,1005.29
2022-10-10T00:30:04.323Z,1005.27
2022-10-10T00:31:04.301Z,1005.26
2022-10-10T00:32:04.309Z,1005.28
2022-10-10T00:33:04.282Z,1005.28
2022-10-10T00:34:04.319Z,1005.22
2022-10-10T00:35:04.279Z,1005.20
2022-10-10T00:36:04.300Z,1005.22
2022-10-10T00:37:04.259Z,1005.24
2022-10-10T00:38:04.269Z,1005.18
2022-10-10T00:39:04.259Z,1005.22
2022-10-10T00:40:04.247Z,1005.21
2022-10-10T00:41:04.259Z,1005.17
2022-10-10T00:42:04.237Z,1005.16
2022-10-10T00:43:04.236Z,1005.14
2022-10-10T00:44:04.237Z,1005.15
2022-10-10T00:45:04.216Z,1005.14
2022-10-10T00:46:04.212Z,1005.13
2022-10-10T00:47:04.196Z,1005.12
2022-10-10T00:48:04.188Z,1005.10
2022-10-10T00:49:04.197Z,1005.13
2022-10-10T00:50:04.226Z,1005.13
2022-10-10T00:51:04.179Z,1005.09
2022-10-10T00:52:04.167Z,1005.07
2022-10-10T00:53:04.155Z,1005.05
2022-10-10T00:54:04.169Z,1005.04
2022-10-10T00:55:04.144Z,1005.06
2022-10-10T00:56:04.143Z,1005.06
2022-10-10T00:57:04.565Z,1005.10
2022-10-10T00:58:04.125Z,1004.99
2022-10-10T00:59:04.114Z,1005.06
2022-10-10T01:00:04.155Z,1005.05
2022-10-10T01:01:04.824Z,1005.01
2022-10-10T01:02:04.164Z,1005.06
2022-10-10T01:03:04.092Z,1005.03
2022-10-10T01:04:04.911Z,1005.04
2022-10-10T01:05:04.202Z,1004.99
2022-10-10T01:06:04.963Z,1004.94
2022-10-10T01:07:04.952Z,1005.00
2022-10-10T01:08:04.991Z,1004.98
2022-10-10T01:09:05.000Z,1005.02
2022-10-10T01:10:04.921Z,1005.01
2022-10-10T01:11:04.117Z,1005.02
2022-10-10T01:12:04.441Z,1005.03
2022-10-10T01:13:04.790Z,1005.01
2022-10-10T01:14:05.059Z,1005.03
2022-10-10T01:15:04.029Z,1005.07
2022-10-10T01:16:04.859Z,1005.04
2022-10-10T01:17:04.007Z,1005.00
2022-10-10T01:18:04.627Z,1005.04
2022-10-10T01:19:04.826Z,1005.08
2022-10-10T01:20:04.986Z,1005.03
2022-10-10T01:21:04.888Z,1005.04
2022-10-10T01:22:04.637Z,1005.00
2022-10-10T01:23:05.191Z,1005.01
2022-10-10T01:24:04.857Z,1005.06
2022-10-10T01:25:03.969Z,1005.03
2022-10-10T01:26:03.997Z,1005.02
2022-10-10T01:27:03.937Z,1005.00
2022-10-10T01:28:04.106Z,1004.96
2022-10-10T01:29:04.038Z,1004.99
2022-10-10T01:30:04.107Z,1004.96
2022-10-10T01:31:04.151Z,1004.97
2022-10-10T01:32:04.205Z,1004.95
2022-10-10T01:33:04.265Z,1005.00
2022-10-10T01:34:03.897Z,1004.94
2022-10-10T01:35:03.892Z,1004.95
2022-10-10T01:36:03.905Z,1004.96
2022-10-10T01:37:03.872Z,1004.87
2022-10-10T01:38:03.881Z,1004.85
2022-10-10T01:39:03.890Z,1004.80
2022-10-10T01:40:03.894Z,1004.87
2022-10-10T01:41:03.920Z,1004.81
2022-10-10T01:42:03.902Z,1004.85
2022-10-10T01:43:03.840Z,1004.80
2022-10-10T01:44:03.921Z,1004.82
2022-10-10T01:45:03.934Z,1004.89
2022-10-10T01:46:03.842Z,1004.89
2022-10-10T01:47:03.842Z,1004.83
2022-10-10T01:48:03.822Z,1004.81
2022-10-10T01:49:03.798Z,1004.81
2022-10-10T01:50:03.870Z,1004.85
2022-10-10T01:51:03.888Z,1004.80
2022-10-10T01:52:03.898Z,1004.77
2022-10-10T01:53:03.912Z,1004.78
2022-10-10T01:54:03.919Z,1004.79
2022-10-10T01:55:03.939Z,1004.82
2022-10-10T01:56:03.952Z,1004.78
2022-10-10T01:57:03.960Z,1004.83
2022-10-10T01:58:03.730Z,1004.76
2022-10-10T01:59:03.848Z,1004.78
2022-10-10T02:00:03.731Z,1004.75
2022-10-10T02:01:03.862Z,1004.74
2022-10-10T02:02:03.707Z,1004.68
2022-10-10T02:03:03.757Z,1004.74
2022-10-10T02:04:03.808Z,1004.70
2022-10-10T02:05:03.856Z,1004.65
2022-10-10T02:06:03.910Z,1004.69
2022-10-10T02:07:03.670Z,1004.65
2022-10-10T02:08:03.717Z,1004.67
2022-10-10T02:09:03.677Z,1004.67
2022-10-10T02:10:04.109Z,1004.61
2022-10-10T02:11:04.065Z,1004.63
2022-10-10T02:12:03.650Z,1004.62
2022-10-10T02:13:03.988Z,1004.61
2022-10-10T02:14:04.184Z,1004.58
2022-10-10T02:15:03.625Z,1004.57
2022-10-10T02:16:03.624Z,1004.58
2022-10-10T02:17:03.885Z,1004.57
2022-10-10T02:18:04.193Z,1004.50
2022-10-10T02:19:04.246Z,1004.58
2022-10-10T02:20:03.583Z,1004.53
2022-10-10T02:21:03.600Z,1004.53
2022-10-10T02:22:03.572Z,1004.57
2022-10-10T02:23:03.700Z,1004.60
2022-10-10T02:24:03.753Z,1004.56
2022-10-10T02:25:03.793Z,1004.58
2022-10-10T02:26:03.841Z,1004.56
2022-10-10T02:27:03.901Z,1004.57
2022-10-10T02:28:04.117Z,1004.46
2022-10-10T02:29:04.033Z,1004.53
2022-10-10T02:30:03.529Z,1004.52
2022-10-10T02:31:04.115Z,1004.52
2022-10-10T02:32:04.162Z,1004.50
2022-10-10T02:33:04.200Z,1004.50
2022-10-10T02:34:04.251Z,1004.49
2022-10-10T02:35:04.299Z,1004.58
2022-10-10T02:36:04.259Z,1004.52
2022-10-10T02:37:03.470Z,1004.53
2022-10-10T02:38:03.490Z,1004.48
2022-10-10T02:39:03.538Z,1004.44
2022-10-10T02:40:03.584Z,1004.46
2022-10-10T02:41:03.637Z,1004.45
2022-10-10T02:42:03.698Z,1004.42
2022-10-10T02:43:03.480Z,1004.41
2022-10-10T02:44:03.437Z,1004.41
2022-10-10T02:45:03.486Z,1004.39
2022-10-10T02:46:03.837Z,1004.39
2022-10-10T02:47:03.521Z,1004.38
2022-10-10T02:48:03.527Z,1004.40
2022-10-10T02:49:03.528Z,1004.37
2022-10-10T02:50:03.535Z,1004.42
2022-10-10T02:51:03.566Z,1004.39
2022-10-10T02:52:03.386Z,1004.36
2022-10-10T02:53:03.384Z,1004.39
2022-10-10T02:54:03.395Z,1004.45
2022-10-10T02:55:03.354Z,1004.32
2022-10-10T02:56:03.422Z,1004.32
2022-10-10T02:57:03.434Z,1004.32
2022-10-10T02:58:03.444Z,1004.32
2022-10-10T02:59:03.464Z,1004.30
2022-10-10T03:00:03.333Z,1004.27
2022-10-10T03:01:03.546Z,1004.28
2022-10-10T03:02:03.505Z,1004.28
2022-10-10T03:03:03.511Z,1004.25
2022-10-10T03:04:03.292Z,1004.27
2022-10-10T03:05:05.638Z,1004.21
2022-10-10T03:06:03.554Z,1004.18
2022-10-10T03:07:03.564Z,1004.17
2022-10-10T03:08:05.859Z,1004.20
2022-10-10T03:09:03.261Z,1004.17
2022-10-10T03:10:03.333Z,1004.17
2022-10-10T03:11:03.321Z,1004.14
2022-10-10T03:12:03.282Z,1004.19
2022-10-10T03:13:03.284Z,1004.13
2022-10-10T03:14:03.252Z,1004.09
2022-10-10T03:15:05.064Z,1004.12
2022-10-10T03:16:03.280Z,1004.12
2022-10-10T03:17:03.328Z,1004.13
2022-10-10T03:18:03.303Z,1004.12
2022-10-10T03:19:03.436Z,1004.11
2022-10-10T03:20:03.179Z,1004.10
2022-10-10T03:21:03.548Z,1004.07
2022-10-10T03:22:03.249Z,1004.07
2022-10-10T03:23:03.268Z,1004.08
2022-10-10T03:24:03.149Z,1003.99
2022-10-10T03:25:03.208Z,1004.02
2022-10-10T03:26:03.278Z,1004.05
2022-10-10T03:27:03.198Z,1004.02
2022-10-10T03:28:03.173Z,1003.96
2022-10-10T03:29:03.167Z,1004.05
2022-10-10T03:30:03.299Z,1004.00
2022-10-10T03:31:03.427Z,1003.97
2022-10-10T03:32:05.287Z,1003.95
2022-10-10T03:33:03.608Z,1003.92
2022-10-10T03:34:03.155Z,1003.92
2022-10-10T03:35:03.827Z,1003.89
2022-10-10T03:36:03.495Z,1003.96
2022-10-10T03:37:03.895Z,1003.98
2022-10-10T03:38:03.294Z,1003.93
2022-10-10T03:39:03.226Z,1003.94
2022-10-10T03:40:03.057Z,1003.95
2022-10-10T03:41:03.343Z,1003.94
2022-10-10T03:42:03.485Z,1003.90
2022-10-10T03:43:03.774Z,1003.92
2022-10-10T03:44:03.443Z,1003.92
2022-10-10T03:45:03.025Z,1003.83
2022-10-10T03:46:04.033Z,1003.78
2022-10-10T03:47:03.083Z,1003.80
2022-10-10T03:48:03.082Z,1003.87
2022-10-10T03:49:03.024Z,1003.84
2022-10-10T03:50:03.074Z,1003.89
2022-10-10T03:51:03.102Z,1003.84
2022-10-10T03:52:03.124Z,1003.88
2022-10-10T03:53:03.065Z,1003.92
2022-10-10T03:54:03.250Z,1003.89
2022-10-10T03:55:02.961Z,1003.83
2022-10-10T03:56:03.350Z,1003.84
2022-10-10T03:57:03.397Z,1003.86
2022-10-10T03:58:02.948Z,1003.81
2022-10-10T03:59:03.500Z,1003.83
2022-10-10T04:00:02.979Z,1003.83
2022-10-10T04:01:03.120Z,1003.91
2022-10-10T04:02:03.409Z,1003.92
2022-10-10T04:03:03.688Z,1003.87
2022-10-10T04:04:03.731Z,1003.84
2022-10-10T04:05:03.581Z,1003.86
2022-10-10T04:06:02.877Z,1003.83
2022-10-10T04:07:02.869Z,1003.83
2022-10-10T04:08:02.890Z,1003.82
2022-10-10T04:09:02.948Z,1003.84
2022-10-10T04:10:03.012Z,1003.83
2022-10-10T04:11:03.044Z,1003.89
2022-10-10T04:12:03.087Z,1003.87
2022-10-10T04:13:03.127Z,1003.84
2022-10-10T04:14:02.817Z,1003.84
2022-10-10T04:15:02.807Z,1003.85
2022-10-10T04:16:02.867Z,1003.85
2022-10-10T04:17:03.461Z,1003.82
2022-10-10T04:18:03.054Z,1003.83
2022-10-10T04:19:02.786Z,1003.83
2022-10-10T04:20:02.813Z,1003.81
2022-10-10T04:21:02.894Z,1003.86
2022-10-10T04:22:02.834Z,1003.76
2022-10-10T04:23:02.775Z,1003.79
2022-10-10T04:24:02.765Z,1003.80
2022-10-10T04:25:02.766Z,1003.78
2022-10-10T04:26:02.735Z,1003.73
2022-10-10T04:27:02.726Z,1003.73
2022-10-10T04:28:02.744Z,1003.71
2022-10-10T04:29:02.742Z,1003.74
2022-10-10T04:30:02.763Z,1003.73
2022-10-10T04:31:02.754Z,1003.69
2022-10-10T04:32:02.763Z,1003.68
2022-10-10T04:33:02.705Z,1003.61
2022-10-10T04:34:02.694Z,1003.72
2022-10-10T04:35:02.700Z,1003.68
2022-10-10T04:36:02.713Z,1003.62
2022-10-10T04:37:02.723Z,1003.60
2022-10-10T04:38:02.832Z,1003.67
2022-10-10T04:39:02.752Z,1003.64
2022-10-10T04:40:02.770Z,1003.61
2022-10-10T04:41:02.641Z,1003.64
2022-10-10T04:42:02.801Z,1003.60
2022-10-10T04:43:02.811Z,1003.56
2022-10-10T04:44:02.636Z,1003.59
2022-10-10T04:45:02.839Z,1003.66
2022-10-10T04:46:02.858Z,1003.60
2022-10-10T04:47:02.862Z,1003.60
2022-10-10T04:48:02.893Z,1003.58
2022-10-10T04:49:02.883Z,1003.53
2022-10-10T04:50:02.890Z,1003.57
2022-10-10T04:51:02.899Z,1003.57
2022-10-10T04:52:02.765Z,1003.56
2022-10-10T04:53:02.820Z,1003.56
2022-10-10T04:54:02.957Z,1003.54
2022-10-10T04:55:02.958Z,1003.57
2022-10-10T04:56:02.976Z,1003.57
2022-10-10T04:57:02.528Z,1003.57
2022-10-10T04:58:02.548Z,1003.57
2022-10-10T04:59:02.540Z,1003.62
2022-10-10T05:00:02.567Z,1003.57
2022-10-10T05:01:02.552Z,1003.63
2022-10-10T05:02:02.536Z,1003.57
2022-10-10T05:03:02.569Z,1003.50
2022-10-10T05:04:02.597Z,1003.62
2022-10-10T05:05:02.466Z,1003.60
2022-10-10T05:06:02.476Z,1003.56
2022-10-10T05:07:02.596Z,1003.58
2022-10-10T05:08:02.478Z,1003.58
2022-10-10T05:09:02.526Z,1003.59
2022-10-10T05:10:02.676Z,1003.58
2022-10-10T05:11:02.627Z,1003.61
2022-10-10T05:12:02.947Z,1003.57
2022-10-10T05:13:03.016Z,1003.56
2022-10-10T05:14:02.415Z,1003.59
2022-10-10T05:15:02.435Z,1003.60
2022-10-10T05:16:02.417Z,1003.59
2022-10-10T05:17:03.185Z,1003.58
2022-10-10T05:18:02.953Z,1003.57
2022-10-10T05:19:02.400Z,1003.58
2022-10-10T05:20:02.855Z,1003.63
2022-10-10T05:21:03.986Z,1003.60
2022-10-10T05:22:03.264Z,1003.57
2022-10-10T05:23:02.569Z,1003.60
2022-10-10T05:24:02.464Z,1003.54
2022-10-10T05:25:02.637Z,1003.61
2022-10-10T05:26:03.370Z,1003.57
2022-10-10T05:27:03.153Z,1003.56
2022-10-10T05:28:02.844Z,1003.59
2022-10-10T05:29:02.353Z,1003.60
2022-10-10T05:30:03.252Z,1003.61
2022-10-10T05:31:03.163Z,1003.62
2022-10-10T05:32:05.378Z,1003.62
2022-10-10T05:33:02.520Z,1003.62
2022-10-10T05:34:02.351Z,1003.61
2022-10-10T05:35:02.363Z,1003.62
2022-10-10T05:36:02.362Z,1003.61
2022-10-10T05:37:02.431Z,1003.56
2022-10-10T05:38:02.382Z,1003.59
2022-10-10T05:39:02.254Z,1003.57
2022-10-10T05:40:02.429Z,1003.54
2022-10-10T05:41:02.491Z,1003.56
2022-10-10T05:42:02.519Z,1003.55
2022-10-10T05:43:02.554Z,1003.58
2022-10-10T05:44:02.267Z,1003.59
2022-10-10T05:45:02.251Z,1003.55
2022-10-10T05:46:02.338Z,1003.62
2022-10-10T05:47:02.726Z,1003.57
2022-10-10T05:48:02.851Z,1003.62
2022-10-10T05:49:02.909Z,1003.55
2022-10-10T05:50:02.180Z,1003.57
2022-10-10T05:51:02.997Z,1003.57
2022-10-10T05:52:02.319Z,1003.55
2022-10-10T05:53:02.679Z,1003.55
2022-10-10T05:54:02.958Z,1003.60
2022-10-10T05:55:02.289Z,1003.67
2022-10-10T05:56:02.148Z,1003.61
2022-10-10T05:57:02.150Z,1003.58
2022-10-10T05:58:02.116Z,1003.59
2022-10-10T05:59:02.129Z,1003.58
2022-10-10T06:00:02.145Z,1003.60
2022-10-10T06:01:02.155Z,1003.55
2022-10-10T06:02:02.164Z,1003.56
2022-10-10T06:03:02.184Z,1003.53
2022-10-10T06:04:02.185Z,1003.54
2022-10-10T06:05:02.205Z,1003.51
2022-10-10T06:06:02.234Z,1003.53
2022-10-10T06:07:02.226Z,1003.52
2022-10-10T06:08:10.647Z,1003.50
2022-10-10T06:09:02.276Z,1003.52
2022-10-10T06:10:02.275Z,1003.52
2022-10-10T06:11:02.033Z,1003.61
2022-10-10T06:12:02.023Z,1003.58
2022-10-10T06:13:02.062Z,1003.60
2022-10-10T06:14:02.121Z,1003.59
2022-10-10T06:15:02.188Z,1003.59
2022-10-10T06:16:03.464Z,1003.56
2022-10-10T06:17:02.222Z,1003.52
2022-10-10T06:18:02.402Z,1003.57
2022-10-10T06:19:02.372Z,1003.55
2022-10-10T06:20:02.306Z,1003.56
2022-10-10T06:21:02.422Z,1003.54
2022-10-10T06:22:02.014Z,1003.51
2022-10-10T06:23:02.452Z,1003.55
2022-10-10T06:24:02.051Z,1003.54
2022-10-10T06:25:02.181Z,1003.59
2022-10-10T06:26:01.943Z,1003.51
2022-10-10T06:27:02.500Z,1003.51
2022-10-10T06:28:02.334Z,1003.49
2022-10-10T06:29:02.080Z,1003.46
2022-10-10T06:30:01.968Z,1003.50
2022-10-10T06:31:01.904Z,1003.50
2022-10-10T06:32:02.058Z,1003.47
2022-10-10T06:33:02.144Z,1003.45
2022-10-10T06:34:02.072Z,1003.50
2022-10-10T06:35:01.939Z,1003.48
2022-10-10T06:36:02.208Z,1003.49
2022-10-10T06:37:01.889Z,1003.48
2022-10-10T06:38:01.896Z,1003.51
2022-10-10T06:39:02.158Z,1003.46
2022-10-10T06:40:02.669Z,1003.46
2022-10-10T06:41:03.268Z,1003.53
2022-10-10T06:42:01.999Z,1003.44
2022-10-10T06:43:02.574Z,1003.48
2022-10-10T06:44:02.108Z,1003.47
2022-10-10T06:45:01.805Z,1003.46
2022-10-10T06:46:02.438Z,1003.53
2022-10-10T06:47:01.797Z,1003.55
2022-10-10T06:48:01.813Z,1003.52
2022-10-10T06:49:01.846Z,1003.56
2022-10-10T06:50:01.858Z,1003.50
2022-10-10T06:51:01.763Z,1003.53
2022-10-10T06:52:01.831Z,1003.57
2022-10-10T06:53:01.846Z,1003.51
2022-10-10T06:54:01.896Z,1003.56
2022-10-10T06:55:01.858Z,1003.57
2022-10-10T06:56:01.935Z,1003.60
2022-10-10T06:57:01.925Z,1003.57
2022-10-10T06:58:01.971Z,1003.59
2022-10-10T06:59:01.746Z,1003.57
2022-10-10T07:00:01.708Z,1003.62
2022-10-10T07:01:01.708Z,1003.63
2022-10-10T07:02:01.685Z,1003.57
2022-10-10T07:03:01.694Z,1003.53
2022-10-10T07:04:01.703Z,1003.58
2022-10-10T07:05:01.664Z,1003.56
2022-10-10T07:06:01.666Z,1003.60
2022-10-10T07:07:01.675Z,1003.57
2022-10-10T07:08:01.683Z,1003.58
2022-10-10T07:09:01.693Z,1003.55
2022-10-10T07:10:01.714Z,1003.49
2022-10-10T07:11:01.722Z,1003.60
2022-10-10T07:12:01.624Z,1003.56
2022-10-10T07:13:01.751Z,1003.53
2022-10-10T07:14:01.791Z,1003.58
2022-10-10T07:15:01.773Z,1003.56
2022-10-10T07:16:01.595Z,1003.60
2022-10-10T07:17:01.571Z,1003.51
2022-10-10T07:18:01.827Z,1003.57
2022-10-10T07:19:01.591Z,1003.62
2022-10-10T07:20:01.846Z,1003.60
2022-10-10T07:21:01.580Z,1003.58
2022-10-10T07:22:01.633Z,1003.58
2022-10-10T07:23:01.622Z,1003.58
2022-10-10T07:24:01.900Z,1003.63
2022-10-10T07:25:01.538Z,1003.61
2022-10-10T07:26:01.543Z,1003.60
2022-10-10T07:27:07.843Z,1003.62
2022-10-10T07:28:01.682Z,1003.65
2022-10-10T07:29:01.730Z,1003.64
2022-10-10T07:30:01.590Z,1003.63
2022-10-10T07:31:01.508Z,1003.63
2022-10-10T07:32:01.667Z,1003.62
2022-10-10T07:33:01.509Z,1003.61
2022-10-10T07:34:02.040Z,1003.53
2022-10-10T07:35:01.460Z,1003.55
2022-10-10T07:36:01.499Z,1003.55
2022-10-10T07:37:02.156Z,1003.60
2022-10-10T07:38:01.718Z,1003.55
2022-10-10T07:39:01.927Z,1003.50
2022-10-10T07:40:02.139Z,1003.58
2022-10-10T07:41:01.556Z,1003.52
2022-10-10T07:42:01.847Z,1003.47
2022-10-10T07:43:01.754Z,1003.52
2022-10-10T07:44:02.168Z,1003.52
2022-10-10T07:45:01.395Z,1003.40
2022-10-10T07:47:01.586Z,1003.42
2022-10-10T07:48:01.366Z,1003.44
2022-10-10T07:49:01.418Z,1003.38
2022-10-10T07:50:01.602Z,1003.46
2022-10-10T07:51:01.612Z,1003.48
2022-10-10T07:52:01.847Z,1003.50
2022-10-10T07:53:01.827Z,1003.38
2022-10-10T07:54:01.417Z,1003.44
2022-10-10T07:55:01.837Z,1003.42
2022-10-10T07:56:01.846Z,1003.42
2022-10-10T07:57:01.636Z,1003.37
2022-10-10T07:58:01.675Z,1003.38
2022-10-10T07:59:01.296Z,1003.42
2022-10-10T08:00:01.296Z,1003.39
2022-10-10T08:01:01.284Z,1003.41
2022-10-10T08:02:01.557Z,1003.33
2022-10-10T08:03:01.480Z,1003.41
2022-10-10T08:04:01.483Z,1003.43
2022-10-10T08:05:01.504Z,1003.36
2022-10-10T08:06:01.515Z,1003.53
2022-10-10T08:07:01.252Z,1003.42
2022-10-10T08:08:01.714Z,1003.43
2022-10-10T08:09:01.739Z,1003.46
2022-10-10T08:10:01.737Z,1003.41
2022-10-10T08:11:01.322Z,1003.43
2022-10-10T08:12:01.224Z,1003.43
2022-10-10T08:13:01.822Z,1003.36
2022-10-10T08:14:01.696Z,1003.40
2022-10-10T08:15:01.981Z,1003.40
2022-10-10T08:16:01.773Z,1003.45
2022-10-10T08:17:01.186Z,1003.48
2022-10-10T08:18:01.362Z,1003.43
2022-10-10T08:19:01.622Z,1003.44
2022-10-10T08:20:01.372Z,1003.39
2022-10-10T08:21:01.794Z,1003.42
2022-10-10T08:22:01.750Z,1003.40
2022-10-10T08:23:02.015Z,1003.45
2022-10-10T08:24:01.342Z,1003.41
2022-10-10T08:25:01.243Z,1003.42
2022-10-10T08:26:01.972Z,1003.37
2022-10-10T08:27:01.636Z,1003.50
2022-10-10T08:28:01.421Z,1003.44
2022-10-10T08:29:01.081Z,1003.46
2022-10-10T08:30:01.097Z,1003.49
2022-10-10T08:31:04.226Z,1003.48
2022-10-10T08:32:01.071Z,1003.47
2022-10-10T08:33:01.090Z,1003.46
2022-10-10T08:34:01.102Z,1003.49
2022-10-10T08:35:01.102Z,1003.47
2022-10-10T08:36:01.080Z,1003.46
2022-10-10T08:37:01.117Z,1003.49
2022-10-10T08:38:01.040Z,1003.46
2022-10-10T08:39:01.111Z,1003.52
2022-10-10T08:40:01.198Z,1003.47
2022-10-10T08:41:01.199Z,1003.52
2022-10-10T08:42:01.017Z,1003.57
2022-10-10T08:43:01.047Z,1003.51
2022-10-10T08:44:00.981Z,1003.47
2022-10-10T08:45:00.989Z,1003.55
2022-10-10T08:46:00.970Z,1003.51
2022-10-10T08:47:00.982Z,1003.52
2022-10-10T08:48:00.989Z,1003.48
2022-10-10T08:49:00.960Z,1003.55
2022-10-10T08:50:00.970Z,1003.51
2022-10-10T08:51:01.000Z,1003.50
2022-10-10T08:52:00.980Z,1003.54
2022-10-10T08:53:00.921Z,1003.55
2022-10-10T08:54:01.196Z,1003.46
2022-10-10T08:55:01.092Z,1003.45
2022-10-10T08:56:01.209Z,1003.51
2022-10-10T08:57:00.890Z,1003.50
2022-10-10T08:58:01.050Z,1003.49
2022-10-10T08:59:01.228Z,1003.48
2022-10-10T09:00:00.891Z,1003.48
2022-10-10T09:01:01.284Z,1003.44
2022-10-10T09:02:19.403Z,1003.48
2022-10-10T09:03:01.109Z,1003.48
2022-10-10T09:04:01.258Z,1003.49
2022-10-10T09:05:00.878Z,1003.52
2022-10-10T09:06:00.829Z,1003.45
2022-10-10T09:07:00.818Z,1003.47
2022-10-10T09:08:01.278Z,1003.41
2022-10-10T09:09:01.094Z,1003.43
2022-10-10T09:10:01.018Z,1003.40
2022-10-10T09:11:01.098Z,1003.37
2022-10-10T09:12:00.946Z,1003.38
2022-10-10T09:13:01.008Z,1003.35
2022-10-10T09:14:00.771Z,1003.42
2022-10-10T09:15:02.649Z,1003.45
2022-10-10T09:16:00.926Z,1003.41
2022-10-10T09:17:00.756Z,1003.45
2022-10-10T09:18:00.937Z,1003.45
2022-10-10T09:19:00.744Z,1003.41
2022-10-10T09:20:00.998Z,1003.41
2022-10-10T09:21:00.984Z,1003.44
2022-10-10T09:22:01.157Z,1003.36
2022-10-10T09:23:00.818Z,1003.41
2022-10-10T09:24:00.827Z,1003.46
2022-10-10T09:25:01.236Z,1003.47
2022-10-10T09:26:01.290Z,1003.43
2022-10-10T09:27:01.405Z,1003.48
2022-10-10T09:28:00.679Z,1003.49
2022-10-10T09:29:00.805Z,1003.43
2022-10-10T09:30:01.216Z,1003.50
2022-10-10T09:31:01.587Z,1003.47
2022-10-10T09:32:01.235Z,1003.49
2022-10-10T09:33:01.432Z,1003.49
2022-10-10T09:34:00.645Z,1003.50
2022-10-10T09:35:01.504Z,1003.50
2022-10-10T09:36:00.794Z,1003.50
2022-10-10T09:37:00.663Z,1003.53
2022-10-10T09:38:01.325Z,1003.53
2022-10-10T09:39:00.628Z,1003.60
2022-10-10T09:40:00.681Z,1003.59
2022-10-10T09:41:00.871Z,1003.57
2022-10-10T09:42:00.744Z,1003.61
2022-10-10T09:43:00.607Z,1003.56
2022-10-10T09:44:00.907Z,1003.55
2022-10-10T09:45:00.915Z,1003.57
2022-10-10T09:46:00.926Z,1003.53
2022-10-10T09:47:00.565Z,1003.51
2022-10-10T09:48:00.985Z,1003.52
2022-10-10T09:49:00.584Z,1003.51
2022-10-10T09:50:00.580Z,1003.53
2022-10-10T09:51:01.005Z,1003.46
2022-10-10T09:52:00.602Z,1003.50
2022-10-10T09:53:00.583Z,1003.47
2022-10-10T09:54:00.553Z,1003.46
2022-10-10T09:55:00.664Z,1003.46
2022-10-10T09:56:00.846Z,1003.46
2022-10-10T09:57:00.496Z,1003.52
2022-10-10T09:58:00.603Z,1003.50
2022-10-10T09:59:00.864Z,1003.55
2022-10-10T10:00:03.857Z,1003.50
2022-10-10T10:01:01.491Z,1003.55
2022-10-10T10:02:00.643Z,1003.49
2022-10-10T10:03:00.432Z,1003.53
2022-10-10T10:04:11.355Z,1003.49
2022-10-10T10:05:00.434Z,1003.54
2022-10-10T10:06:00.455Z,1003.54
2022-10-10T10:07:00.431Z,1003.50
2022-10-10T10:08:00.441Z,1003.58
2022-10-10T10:09:00.461Z,1003.58
2022-10-10T10:10:00.463Z,1003.62
2022-10-10T10:11:01.066Z,1003.59
2022-10-10T10:12:00.474Z,1003.58
2022-10-10T10:13:00.472Z,1003.65
2022-10-10T10:14:00.482Z,1003.66
2022-10-10T10:15:00.493Z,1003.66
2022-10-10T10:16:00.422Z,1003.66
2022-10-10T10:17:00.370Z,1003.66
2022-10-10T10:18:00.581Z,1003.61
2022-10-10T10:19:00.562Z,1003.61
2022-10-10T10:20:00.427Z,1003.65
2022-10-10T10:21:01.062Z,1003.60
2022-10-10T10:22:00.455Z,1003.62
2022-10-10T10:23:00.619Z,1003.62
2022-10-10T10:24:00.621Z,1003.68
2022-10-10T10:25:00.502Z,1003.67
2022-10-10T10:26:00.871Z,1003.68
2022-10-10T10:27:00.360Z,1003.66
2022-10-10T10:28:00.367Z,1003.68
2022-10-10T10:29:00.278Z,1003.71
2022-10-10T10:30:00.320Z,1003.69
2022-10-10T10:31:00.322Z,1003.73
2022-10-10T10:32:00.309Z,1003.68
2022-10-10T10:33:00.460Z,1003.63
2022-10-10T10:34:00.220Z,1003.63
2022-10-10T10:35:00.290Z,1003.67
2022-10-10T10:36:00.863Z,1003.67
2022-10-10T10:37:00.239Z,1003.63
2022-10-10T10:38:00.269Z,1003.57
2022-10-10T10:39:00.260Z,1003.56
2022-10-10T10:40:00.178Z,1003.64
2022-10-10T10:41:00.208Z,1003.60
2022-10-10T10:42:00.434Z,1003.56
2022-10-10T10:43:00.175Z,1003.63
2022-10-10T10:44:00.523Z,1003.58
2022-10-10T10:45:00.169Z,1003.57
2022-10-10T10:46:00.521Z,1003.55
2022-10-10T10:47:00.129Z,1003.59
2022-10-10T10:48:00.138Z,1003.62
2022-10-10T10:49:00.121Z,1003.65
2022-10-10T10:50:00.789Z,1003.60
2022-10-10T10:51:01.136Z,1003.61
2022-10-10T10:52:00.428Z,1003.60
2022-10-10T10:53:00.678Z,1003.65
2022-10-10T10:54:00.748Z,1003.68
2022-10-10T10:55:00.994Z,1003.68
2022-10-10T10:56:01.374Z,1003.75
2022-10-10T10:57:06.286Z,1003.73
2022-10-10T10:58:37.252Z,1003.76
2022-10-10T11:00:20.522Z,1003.74
2022-10-10T11:01:28.617Z,1003.71
2022-10-10T11:02:01.132Z,1003.70
2022-10-10T11:03:15.020Z,1003.71
2022-10-10T11:05:18.899Z,1003.66
2022-10-10T11:05:24.401Z,1003.71
2022-10-10T11:06:00.124Z,1003.67
2022-10-10T11:07:17.970Z,1003.69
2022-10-10T11:08:00.018Z,1003.66
2022-10-10T11:08:59.977Z,1003.66
2022-10-10T11:09:59.965Z,1003.64
2022-10-10T11:11:00.238Z,1003.67
2022-10-10T11:12:04.282Z,1003.62
2022-10-10T11:12:59.957Z,1003.61
2022-10-10T11:13:59.937Z,1003.66
2022-10-10T11:14:59.948Z,1003.61
2022-10-10T11:16:09.956Z,1003.61
2022-10-10T11:16:59.925Z,1003.57
2022-10-10T11:17:59.977Z,1003.61
2022-10-10T11:18:59.906Z,1003.60
2022-10-10T11:19:59.897Z,1003.57
2022-10-10T11:21:00.274Z,1003.54
2022-10-10T11:22:00.036Z,1003.52
2022-10-10T11:23:00.037Z,1003.51
2022-10-10T11:24:00.058Z,1003.48
2022-10-10T11:24:59.865Z,1003.46
2022-10-10T11:25:59.878Z,1003.48
2022-10-10T11:26:59.848Z,1003.52
2022-10-10T11:28:00.110Z,1003.48
2022-10-10T11:28:59.879Z,1003.47
2022-10-10T11:30:00.142Z,1003.52
2022-10-10T11:30:59.986Z,1003.48
2022-10-10T11:31:59.825Z,1003.55
2022-10-10T11:32:59.810Z,1003.57
2022-10-10T11:33:59.825Z,1003.61
2022-10-10T11:34:59.901Z,1003.64
2022-10-10T11:36:00.107Z,1003.56
2022-10-10T11:36:59.787Z,1003.45
2022-10-10T11:38:00.005Z,1003.56
2022-10-10T11:39:00.135Z,1003.50
2022-10-10T11:40:00.130Z,1003.51
2022-10-10T11:40:59.817Z,1003.55
2022-10-10T11:41:59.941Z,1003.50
2022-10-10T11:42:59.737Z,1003.48
2022-10-10T11:43:59.736Z,1003.44
2022-10-10T11:44:59.731Z,1003.44
2022-10-10T11:46:03.008Z,1003.43
2022-10-10T11:46:59.836Z,1003.44
2022-10-10T11:47:59.891Z,1003.47
2022-10-10T11:48:59.974Z,1003.60
2022-10-10T11:50:00.105Z,1003.55
2022-10-10T11:51:00.086Z,1003.54
2022-10-10T11:52:14.953Z,1003.57
2022-10-10T11:52:59.687Z,1003.57
2022-10-10T11:53:59.806Z,1003.55
2022-10-10T11:54:59.664Z,1003.54
2022-10-10T11:55:59.954Z,1003.54
2022-10-10T11:56:59.643Z,1003.58
2022-10-10T11:57:59.635Z,1003.58
2022-10-10T11:58:59.626Z,1003.58
2022-10-10T11:59:59.655Z,1003.59
2022-10-10T12:00:59.634Z,1003.64
2022-10-10T12:01:59.622Z,1003.58
2022-10-10T12:02:59.594Z,1003.56
2022-10-10T12:03:59.874Z,1003.53
2022-10-10T12:05:00.101Z,1003.57
2022-10-10T12:06:00.223Z,1003.53
2022-10-10T12:06:59.575Z,1003.56